CheckWX is a tool to help pilots better visualize weather data.  It is not intended as a substitute for an official pre-flight weather briefing.

12:56:07 UTC

KAVP TAF
Wilkes-Barre / Scranton International Airport
Wilkes-Barre/Scranton, Pennsylvania, USA
KAVP 131123Z 1312/1412 00000KT P6SM OVC035 FM131700 14008KT P6SM BKN013 FM131900 14009KT 3SM -RADZ BR OVC011 FM140200 11008KT 2SM -RA BR OVC004 FM140600 07006KT 1 1/2SM RA BR OVC004

Dec-13@
12:00 UTC

Dec-13 @ 12:00 UTC

Dec-13@
17:00 UTC

Dec-13 @ 17:00 UTC

KAVP 131123Z 1312/1412 00000KT P6SM OVC035
Cloud Levels
  • Overcast at 3,500' AGL

Dec-13@
17:00 UTC

Dec-13 @ 17:00 UTC

Dec-13@
19:00 UTC

Dec-13 @ 19:00 UTC

FM131700 14008KT P6SM BKN013

From

From Standard forecast or significant change

Wind
  • 140° at 8 KTS
Cloud Levels
  • Broken at 1,300' AGL

Dec-13@
19:00 UTC

Dec-13 @ 19:00 UTC

Dec-14@
02:00 UTC

Dec-14 @ 02:00 UTC

FM131900 14009KT 3SM -RADZ BR OVC011

From

From Standard forecast or significant change

Wind
  • 140° at 9 KTS
Conditions
Light Rain, Light Drizzle, Mist
Cloud Levels
  • Overcast at 1,100' AGL

Dec-14@
02:00 UTC

Dec-14 @ 02:00 UTC

Dec-14@
06:00 UTC

Dec-14 @ 06:00 UTC

FM140200 11008KT 2SM -RA BR OVC004

From

From Standard forecast or significant change

Wind
  • 110° at 8 KTS
Conditions
Light Rain, Mist
Cloud Levels
  • Overcast at 400' AGL

Dec-14@
06:00 UTC

Dec-14 @ 06:00 UTC

Dec-14@
12:00 UTC

Dec-14 @ 12:00 UTC

FM140600 07006KT 1 1/2SM RA BR OVC004

From

From Standard forecast or significant change

Wind
  • 070° at 6 KTS
Conditions
Rain, Mist
Cloud Levels
  • Overcast at 400' AGL